sensor_id;sensor_type;location;lat;lon;timestamp;P1;durP1;ratioP1;P2;durP2;ratioP2
34405;SDS011;20658;45.630;8.886;2022-09-06T00:02:26;10.88;;;7.68;;
34405;SDS011;20658;45.630;8.886;2022-09-06T00:05:03;18.48;;;8.27;;
34405;SDS011;20658;45.630;8.886;2022-09-06T00:07:37;10.70;;;7.60;;
34405;SDS011;20658;45.630;8.886;2022-09-06T00:10:06;14.15;;;7.85;;
34405;SDS011;20658;45.630;8.886;2022-09-06T00:12:41;10.15;;;7.82;;
34405;SDS011;20658;45.630;8.886;2022-09-06T00:15:14;12.20;;;8.73;;
34405;SDS011;20658;45.630;8.886;2022-09-06T00:17:49;12.40;;;7.75;;
34405;SDS011;20658;45.630;8.886;2022-09-06T00:20:18;9.20;;;7.40;;
34405;SDS011;20658;45.630;8.886;2022-09-06T00:22:46;12.68;;;7.90;;
34405;SDS011;20658;45.630;8.886;2022-09-06T00:25:19;11.48;;;7.45;;
34405;SDS011;20658;45.630;8.886;2022-09-06T00:27:53;9.73;;;7.40;;
34405;SDS011;20658;45.630;8.886;2022-09-06T00:30:28;16.25;;;7.88;;
34405;SDS011;20658;45.630;8.886;2022-09-06T00:33:03;11.75;;;8.20;;
34405;SDS011;20658;45.630;8.886;2022-09-06T00:35:37;11.38;;;7.55;;
34405;SDS011;20658;45.630;8.886;2022-09-06T00:38:10;9.52;;;7.35;;
34405;SDS011;20658;45.630;8.886;2022-09-06T00:40:43;12.10;;;7.55;;
34405;SDS011;20658;45.630;8.886;2022-09-06T00:43:17;13.10;;;7.45;;
34405;SDS011;20658;45.630;8.886;2022-09-06T00:45:50;11.40;;;6.70;;
34405;SDS011;20658;45.630;8.886;2022-09-06T00:48:27;16.23;;;7.93;;
34405;SDS011;20658;45.630;8.886;2022-09-06T00:51:01;10.55;;;7.43;;
34405;SDS011;20658;45.630;8.886;2022-09-06T00:53:38;12.30;;;7.97;;
34405;SDS011;20658;45.630;8.886;2022-09-06T00:56:07;15.23;;;7.50;;
34405;SDS011;20658;45.630;8.886;2022-09-06T00:58:41;9.93;;;6.45;;
34405;SDS011;20658;45.630;8.886;2022-09-06T01:01:14;12.98;;;7.65;;
34405;SDS011;20658;45.630;8.886;2022-09-06T01:03:49;13.55;;;6.90;;
34405;SDS011;20658;45.630;8.886;2022-09-06T01:06:24;15.30;;;6.90;;
34405;SDS011;20658;45.630;8.886;2022-09-06T01:09:08;14.93;;;7.93;;
34405;SDS011;20658;45.630;8.886;2022-09-06T01:11:58;16.98;;;7.65;;
34405;SDS011;20658;45.630;8.886;2022-09-06T01:14:48;11.35;;;7.20;;
34405;SDS011;20658;45.630;8.886;2022-09-06T01:17:38;15.38;;;7.03;;
34405;SDS011;20658;45.630;8.886;2022-09-06T01:20:30;11.70;;;7.03;;
34405;SDS011;20658;45.630;8.886;2022-09-06T01:27:04;12.93;;;6.85;;
34405;SDS011;20658;45.630;8.886;2022-09-06T01:30:22;9.93;;;7.60;;
34405;SDS011;20658;45.630;8.886;2022-09-06T01:32:53;14.93;;;7.93;;
34405;SDS011;20658;45.630;8.886;2022-09-06T01:35:29;10.23;;;7.72;;
34405;SDS011;20658;45.630;8.886;2022-09-06T01:38:05;13.18;;;6.68;;
34405;SDS011;20658;45.630;8.886;2022-09-06T01:40:39;12.38;;;6.60;;
34405;SDS011;20658;45.630;8.886;2022-09-06T01:43:15;10.48;;;6.45;;
34405;SDS011;20658;45.630;8.886;2022-09-06T01:45:59;11.57;;;6.13;;
34405;SDS011;20658;45.630;8.886;2022-09-06T01:48:36;11.35;;;6.90;;
34405;SDS011;20658;45.630;8.886;2022-09-06T01:51:27;13.52;;;7.25;;
34405;SDS011;20658;45.630;8.886;2022-09-06T01:54:20;8.38;;;6.00;;
34405;SDS011;20658;45.630;8.886;2022-09-06T01:57:10;13.10;;;6.07;;
34405;SDS011;20658;45.630;8.886;2022-09-06T01:59:52;12.18;;;6.22;;
34405;SDS011;20658;45.630;8.886;2022-09-06T02:02:42;11.63;;;5.65;;
34405;SDS011;20658;45.630;8.886;2022-09-06T02:05:26;11.15;;;6.60;;
34405;SDS011;20658;45.630;8.886;2022-09-06T02:08:05;9.68;;;5.93;;
34405;SDS011;20658;45.630;8.886;2022-09-06T02:10:40;12.73;;;6.20;;
34405;SDS011;20658;45.630;8.886;2022-09-06T02:13:13;9.02;;;5.97;;
34405;SDS011;20658;45.630;8.886;2022-09-06T02:15:49;9.73;;;6.18;;
34405;SDS011;20658;45.630;8.886;2022-09-06T02:18:25;9.80;;;5.63;;
34405;SDS011;20658;45.630;8.886;2022-09-06T02:21:03;19.45;;;7.07;;
34405;SDS011;20658;45.630;8.886;2022-09-06T02:23:40;13.38;;;5.68;;
34405;SDS011;20658;45.630;8.886;2022-09-06T02:26:16;8.10;;;6.13;;
34405;SDS011;20658;45.630;8.886;2022-09-06T02:28:53;12.32;;;6.70;;
34405;SDS011;20658;45.630;8.886;2022-09-06T02:31:24;10.90;;;6.43;;
34405;SDS011;20658;45.630;8.886;2022-09-06T02:34:02;8.32;;;6.47;;
34405;SDS011;20658;45.630;8.886;2022-09-06T02:36:33;11.60;;;6.40;;
34405;SDS011;20658;45.630;8.886;2022-09-06T02:39:08;9.55;;;6.82;;
34405;SDS011;20658;45.630;8.886;2022-09-06T02:41:42;13.07;;;7.30;;
34405;SDS011;20658;45.630;8.886;2022-09-06T02:44:13;8.32;;;6.38;;
34405;SDS011;20658;45.630;8.886;2022-09-06T02:46:46;9.93;;;6.50;;
34405;SDS011;20658;45.630;8.886;2022-09-06T02:49:21;11.48;;;6.90;;
34405;SDS011;20658;45.630;8.886;2022-09-06T02:51:55;13.68;;;6.88;;
34405;SDS011;20658;45.630;8.886;2022-09-06T02:54:23;11.98;;;7.60;;
34405;SDS011;20658;45.630;8.886;2022-09-06T02:56:57;16.70;;;7.70;;
34405;SDS011;20658;45.630;8.886;2022-09-06T02:59:25;8.85;;;7.13;;
34405;SDS011;20658;45.630;8.886;2022-09-06T03:01:54;12.27;;;7.65;;
34405;SDS011;20658;45.630;8.886;2022-09-06T03:04:28;11.38;;;7.15;;
34405;SDS011;20658;45.630;8.886;2022-09-06T03:07:03;11.70;;;7.15;;
34405;SDS011;20658;45.630;8.886;2022-09-06T03:09:36;10.68;;;7.05;;
34405;SDS011;20658;45.630;8.886;2022-09-06T03:12:11;13.13;;;6.38;;
34405;SDS011;20658;45.630;8.886;2022-09-06T03:14:44;14.15;;;6.20;;
34405;SDS011;20658;45.630;8.886;2022-09-06T03:17:17;10.32;;;6.20;;
34405;SDS011;20658;45.630;8.886;2022-09-06T03:19:52;11.73;;;6.13;;
34405;SDS011;20658;45.630;8.886;2022-09-06T03:22:25;14.98;;;6.95;;
34405;SDS011;20658;45.630;8.886;2022-09-06T03:24:59;15.63;;;7.28;;
34405;SDS011;20658;45.630;8.886;2022-09-06T03:27:32;11.70;;;7.47;;
34405;SDS011;20658;45.630;8.886;2022-09-06T03:30:06;11.75;;;7.90;;
34405;SDS011;20658;45.630;8.886;2022-09-06T03:32:41;13.80;;;7.30;;
34405;SDS011;20658;45.630;8.886;2022-09-06T03:35:15;12.20;;;7.63;;
34405;SDS011;20658;45.630;8.886;2022-09-06T03:37:44;12.68;;;7.60;;
34405;SDS011;20658;45.630;8.886;2022-09-06T03:40:12;13.05;;;7.93;;
34405;SDS011;20658;45.630;8.886;2022-09-06T03:42:46;13.32;;;8.02;;
34405;SDS011;20658;45.630;8.886;2022-09-06T03:45:19;10.13;;;7.32;;
34405;SDS011;20658;45.630;8.886;2022-09-06T03:47:48;10.30;;;7.18;;
34405;SDS011;20658;45.630;8.886;2022-09-06T03:50:22;13.75;;;7.68;;
34405;SDS011;20658;45.630;8.886;2022-09-06T03:52:51;10.85;;;6.93;;
34405;SDS011;20658;45.630;8.886;2022-09-06T03:55:19;9.57;;;7.28;;
34405;SDS011;20658;45.630;8.886;2022-09-06T03:57:53;14.38;;;7.20;;
34405;SDS011;20658;45.630;8.886;2022-09-06T04:00:26;12.05;;;7.45;;
34405;SDS011;20658;45.630;8.886;2022-09-06T04:02:54;11.65;;;6.72;;
34405;SDS011;20658;45.630;8.886;2022-09-06T04:05:24;12.90;;;7.80;;
34405;SDS011;20658;45.630;8.886;2022-09-06T04:07:58;10.65;;;7.05;;
34405;SDS011;20658;45.630;8.886;2022-09-06T04:10:26;16.00;;;7.85;;
34405;SDS011;20658;45.630;8.886;2022-09-06T04:13:00;13.88;;;6.63;;
34405;SDS011;20658;45.630;8.886;2022-09-06T04:15:33;11.02;;;6.90;;
34405;SDS011;20658;45.630;8.886;2022-09-06T04:18:07;12.10;;;6.88;;
34405;SDS011;20658;45.630;8.886;2022-09-06T04:20:37;12.95;;;7.43;;
34405;SDS011;20658;45.630;8.886;2022-09-06T04:23:05;11.00;;;7.05;;
34405;SDS011;20658;45.630;8.886;2022-09-06T04:25:33;13.77;;;6.93;;
34405;SDS011;20658;45.630;8.886;2022-09-06T04:28:07;13.93;;;7.57;;
34405;SDS011;20658;45.630;8.886;2022-09-06T04:30:35;15.30;;;7.60;;
34405;SDS011;20658;45.630;8.886;2022-09-06T04:33:09;13.20;;;7.57;;
34405;SDS011;20658;45.630;8.886;2022-09-06T04:35:39;13.88;;;7.63;;
34405;SDS011;20658;45.630;8.886;2022-09-06T04:38:08;12.73;;;7.72;;
34405;SDS011;20658;45.630;8.886;2022-09-06T04:40:36;16.40;;;7.82;;
34405;SDS011;20658;45.630;8.886;2022-09-06T04:43:05;17.75;;;8.25;;
34405;SDS011;20658;45.630;8.886;2022-09-06T04:45:38;15.13;;;8.55;;
34405;SDS011;20658;45.630;8.886;2022-09-06T04:48:12;12.75;;;8.30;;
34405;SDS011;20658;45.630;8.886;2022-09-06T04:50:47;11.98;;;7.15;;
34405;SDS011;20658;45.630;8.886;2022-09-06T04:53:16;11.02;;;6.85;;
34405;SDS011;20658;45.630;8.886;2022-09-06T04:55:49;12.38;;;6.68;;
34405;SDS011;20658;45.630;8.886;2022-09-06T04:58:23;13.70;;;6.93;;
34405;SDS011;20658;45.630;8.886;2022-09-06T05:00:57;12.43;;;6.93;;
34405;SDS011;20658;45.630;8.886;2022-09-06T05:03:30;10.43;;;6.88;;
34405;SDS011;20658;45.630;8.886;2022-09-06T05:06:07;11.77;;;7.35;;
34405;SDS011;20658;45.630;8.886;2022-09-06T05:08:42;14.88;;;7.10;;
34405;SDS011;20658;45.630;8.886;2022-09-06T05:11:16;10.07;;;7.05;;
34405;SDS011;20658;45.630;8.886;2022-09-06T05:13:50;10.95;;;6.90;;
34405;SDS011;20658;45.630;8.886;2022-09-06T05:16:18;11.20;;;6.82;;
34405;SDS011;20658;45.630;8.886;2022-09-06T05:18:51;10.23;;;6.68;;
34405;SDS011;20658;45.630;8.886;2022-09-06T05:21:21;10.30;;;7.22;;
34405;SDS011;20658;45.630;8.886;2022-09-06T05:23:55;11.50;;;7.18;;
34405;SDS011;20658;45.630;8.886;2022-09-06T05:26:23;11.45;;;7.07;;
34405;SDS011;20658;45.630;8.886;2022-09-06T05:28:57;20.42;;;7.45;;
34405;SDS011;20658;45.630;8.886;2022-09-06T05:31:31;11.68;;;6.88;;
34405;SDS011;20658;45.630;8.886;2022-09-06T05:34:00;12.23;;;7.03;;
34405;SDS011;20658;45.630;8.886;2022-09-06T05:36:35;10.10;;;6.28;;
34405;SDS011;20658;45.630;8.886;2022-09-06T05:39:04;13.90;;;6.90;;
34405;SDS011;20658;45.630;8.886;2022-09-06T05:41:37;15.13;;;7.25;;
34405;SDS011;20658;45.630;8.886;2022-09-06T05:44:10;11.40;;;7.28;;
34405;SDS011;20658;45.630;8.886;2022-09-06T05:46:44;10.77;;;6.57;;
34405;SDS011;20658;45.630;8.886;2022-09-06T05:49:18;10.75;;;6.68;;
34405;SDS011;20658;45.630;8.886;2022-09-06T05:51:53;13.00;;;6.90;;
34405;SDS011;20658;45.630;8.886;2022-09-06T05:54:26;11.10;;;7.10;;
34405;SDS011;20658;45.630;8.886;2022-09-06T05:56:59;10.95;;;7.60;;
34405;SDS011;20658;45.630;8.886;2022-09-06T05:59:33;10.07;;;7.00;;
34405;SDS011;20658;45.630;8.886;2022-09-06T06:02:06;12.23;;;6.93;;
34405;SDS011;20658;45.630;8.886;2022-09-06T06:04:40;11.85;;;7.18;;
34405;SDS011;20658;45.630;8.886;2022-09-06T06:07:15;14.18;;;7.70;;
34405;SDS011;20658;45.630;8.886;2022-09-06T06:09:43;11.35;;;7.40;;
34405;SDS011;20658;45.630;8.886;2022-09-06T06:12:16;14.07;;;7.72;;
34405;SDS011;20658;45.630;8.886;2022-09-06T06:14:50;12.63;;;8.10;;
34405;SDS011;20658;45.630;8.886;2022-09-06T06:17:23;12.90;;;8.88;;
34405;SDS011;20658;45.630;8.886;2022-09-06T06:19:52;14.98;;;7.78;;
34405;SDS011;20658;45.630;8.886;2022-09-06T06:22:27;13.73;;;8.13;;
34405;SDS011;20658;45.630;8.886;2022-09-06T06:25:00;13.60;;;7.20;;
34405;SDS011;20658;45.630;8.886;2022-09-06T06:27:34;12.30;;;7.03;;
34405;SDS011;20658;45.630;8.886;2022-09-06T06:30:03;10.88;;;7.07;;
34405;SDS011;20658;45.630;8.886;2022-09-06T06:32:37;11.77;;;6.60;;
34405;SDS011;20658;45.630;8.886;2022-09-06T06:35:11;15.10;;;7.65;;
34405;SDS011;20658;45.630;8.886;2022-09-06T06:37:46;14.32;;;7.82;;
34405;SDS011;20658;45.630;8.886;2022-09-06T06:40:19;15.05;;;7.32;;
34405;SDS011;20658;45.630;8.886;2022-09-06T06:42:54;11.38;;;7.22;;
34405;SDS011;20658;45.630;8.886;2022-09-06T06:45:27;12.55;;;7.25;;
34405;SDS011;20658;45.630;8.886;2022-09-06T06:48:02;11.88;;;7.85;;
34405;SDS011;20658;45.630;8.886;2022-09-06T06:50:30;12.60;;;7.45;;
34405;SDS011;20658;45.630;8.886;2022-09-06T06:53:00;15.38;;;7.72;;
34405;SDS011;20658;45.630;8.886;2022-09-06T06:55:29;11.23;;;7.38;;
34405;SDS011;20658;45.630;8.886;2022-09-06T06:58:02;13.90;;;7.68;;
34405;SDS011;20658;45.630;8.886;2022-09-06T07:00:35;14.25;;;7.22;;
34405;SDS011;20658;45.630;8.886;2022-09-06T07:03:09;10.93;;;7.07;;
34405;SDS011;20658;45.630;8.886;2022-09-06T07:05:44;11.18;;;6.72;;
34405;SDS011;20658;45.630;8.886;2022-09-06T07:08:19;10.95;;;7.63;;
34405;SDS011;20658;45.630;8.886;2022-09-06T07:10:48;8.75;;;6.25;;
34405;SDS011;20658;45.630;8.886;2022-09-06T07:13:21;11.32;;;6.15;;
34405;SDS011;20658;45.630;8.886;2022-09-06T07:15:50;12.23;;;6.55;;
34405;SDS011;20658;45.630;8.886;2022-09-06T07:18:18;9.15;;;6.30;;
34405;SDS011;20658;45.630;8.886;2022-09-06T07:20:46;10.25;;;5.72;;
34405;SDS011;20658;45.630;8.886;2022-09-06T07:23:21;10.32;;;6.05;;
34405;SDS011;20658;45.630;8.886;2022-09-06T07:25:50;10.55;;;5.70;;
34405;SDS011;20658;45.630;8.886;2022-09-06T07:28:19;14.80;;;6.88;;
34405;SDS011;20658;45.630;8.886;2022-09-06T07:30:53;16.20;;;7.30;;
34405;SDS011;20658;45.630;8.886;2022-09-06T07:33:22;11.35;;;7.55;;
34405;SDS011;20658;45.630;8.886;2022-09-06T07:35:56;15.50;;;7.65;;
34405;SDS011;20658;45.630;8.886;2022-09-06T07:38:33;12.48;;;7.72;;
34405;SDS011;20658;45.630;8.886;2022-09-06T07:41:08;12.75;;;6.80;;
34405;SDS011;20658;45.630;8.886;2022-09-06T07:43:42;14.48;;;8.23;;
34405;SDS011;20658;45.630;8.886;2022-09-06T07:46:16;20.15;;;7.35;;
34405;SDS011;20658;45.630;8.886;2022-09-06T07:48:44;10.27;;;6.80;;
34405;SDS011;20658;45.630;8.886;2022-09-06T07:51:15;12.45;;;6.80;;
34405;SDS011;20658;45.630;8.886;2022-09-06T07:53:52;12.07;;;5.95;;
34405;SDS011;20658;45.630;8.886;2022-09-06T07:56:26;12.52;;;6.13;;
34405;SDS011;20658;45.630;8.886;2022-09-06T07:59:00;17.05;;;5.93;;
34405;SDS011;20658;45.630;8.886;2022-09-06T08:01:35;12.57;;;6.30;;
34405;SDS011;20658;45.630;8.886;2022-09-06T08:04:09;13.25;;;6.00;;
34405;SDS011;20658;45.630;8.886;2022-09-06T08:06:45;14.77;;;7.55;;
34405;SDS011;20658;45.630;8.886;2022-09-06T08:09:23;16.75;;;8.30;;
34405;SDS011;20658;45.630;8.886;2022-09-06T08:11:57;11.15;;;7.00;;
34405;SDS011;20658;45.630;8.886;2022-09-06T08:14:31;10.73;;;6.65;;
34405;SDS011;20658;45.630;8.886;2022-09-06T08:17:00;12.15;;;7.50;;
34405;SDS011;20658;45.630;8.886;2022-09-06T08:19:34;11.80;;;6.85;;
34405;SDS011;20658;45.630;8.886;2022-09-06T08:22:02;14.27;;;6.65;;
34405;SDS011;20658;45.630;8.886;2022-09-06T08:24:37;24.20;;;7.60;;
34405;SDS011;20658;45.630;8.886;2022-09-06T08:27:05;17.17;;;7.05;;
34405;SDS011;20658;45.630;8.886;2022-09-06T08:29:39;12.80;;;6.30;;
34405;SDS011;20658;45.630;8.886;2022-09-06T08:32:12;16.83;;;7.45;;
34405;SDS011;20658;45.630;8.886;2022-09-06T08:34:45;11.85;;;7.18;;
34405;SDS011;20658;45.630;8.886;2022-09-06T08:37:18;13.25;;;8.10;;
34405;SDS011;20658;45.630;8.886;2022-09-06T08:39:53;16.75;;;7.57;;
34405;SDS011;20658;45.630;8.886;2022-09-06T08:42:27;12.40;;;6.55;;
34405;SDS011;20658;45.630;8.886;2022-09-06T08:45:01;10.82;;;6.13;;
34405;SDS011;20658;45.630;8.886;2022-09-06T08:47:39;11.82;;;5.53;;
34405;SDS011;20658;45.630;8.886;2022-09-06T08:50:13;11.90;;;6.32;;
34405;SDS011;20658;45.630;8.886;2022-09-06T08:52:48;14.13;;;5.78;;
34405;SDS011;20658;45.630;8.886;2022-09-06T08:55:32;15.85;;;6.13;;
34405;SDS011;20658;45.630;8.886;2022-09-06T09:01:10;11.05;;;6.55;;
34405;SDS011;20658;45.630;8.886;2022-09-06T09:03:44;12.40;;;5.90;;
34405;SDS011;20658;45.630;8.886;2022-09-06T09:06:18;13.30;;;6.28;;
34405;SDS011;20658;45.630;8.886;2022-09-06T09:08:54;15.02;;;7.30;;
34405;SDS011;20658;45.630;8.886;2022-09-06T09:11:37;21.27;;;7.35;;
34405;SDS011;20658;45.630;8.886;2022-09-06T09:14:11;13.65;;;7.53;;
34405;SDS011;20658;45.630;8.886;2022-09-06T09:16:47;13.88;;;7.15;;
34405;SDS011;20658;45.630;8.886;2022-09-06T09:19:22;17.63;;;7.07;;
34405;SDS011;20658;45.630;8.886;2022-09-06T09:21:55;13.75;;;6.80;;
34405;SDS011;20658;45.630;8.886;2022-09-06T09:24:29;18.25;;;7.15;;
34405;SDS011;20658;45.630;8.886;2022-09-06T09:27:04;18.58;;;6.68;;
34405;SDS011;20658;45.630;8.886;2022-09-06T09:29:55;15.43;;;7.88;;
34405;SDS011;20658;45.630;8.886;2022-09-06T09:32:32;15.55;;;7.18;;
34405;SDS011;20658;45.630;8.886;2022-09-06T09:35:14;13.25;;;7.10;;
34405;SDS011;20658;45.630;8.886;2022-09-06T09:37:55;18.05;;;7.72;;
34405;SDS011;20658;45.630;8.886;2022-09-06T09:40:31;23.75;;;7.68;;
34405;SDS011;20658;45.630;8.886;2022-09-06T09:43:15;14.98;;;7.32;;
34405;SDS011;20658;45.630;8.886;2022-09-06T09:49:04;13.23;;;7.38;;
34405;SDS011;20658;45.630;8.886;2022-09-06T09:51:40;14.27;;;9.27;;
34405;SDS011;20658;45.630;8.886;2022-09-06T09:54:30;19.20;;;8.18;;
34405;SDS011;20658;45.630;8.886;2022-09-06T09:57:26;15.35;;;8.57;;
34405;SDS011;20658;45.630;8.886;2022-09-06T10:00:05;14.10;;;7.35;;
34405;SDS011;20658;45.630;8.886;2022-09-06T10:02:38;15.75;;;9.15;;
34405;SDS011;20658;45.630;8.886;2022-09-06T10:05:16;19.25;;;8.85;;
34405;SDS011;20658;45.630;8.886;2022-09-06T10:07:53;19.92;;;9.57;;
34405;SDS011;20658;45.630;8.886;2022-09-06T10:10:28;19.58;;;9.82;;
34405;SDS011;20658;45.630;8.886;2022-09-06T10:13:07;12.98;;;8.18;;
34405;SDS011;20658;45.630;8.886;2022-09-06T10:15:47;18.05;;;9.48;;
34405;SDS011;20658;45.630;8.886;2022-09-06T10:18:27;15.27;;;7.47;;
34405;SDS011;20658;45.630;8.886;2022-09-06T10:21:03;15.82;;;7.82;;
34405;SDS011;20658;45.630;8.886;2022-09-06T10:23:45;18.58;;;8.40;;
34405;SDS011;20658;45.630;8.886;2022-09-06T10:26:35;12.05;;;8.30;;
34405;SDS011;20658;45.630;8.886;2022-09-06T10:29:17;15.75;;;8.95;;
34405;SDS011;20658;45.630;8.886;2022-09-06T10:32:12;12.48;;;8.35;;
34405;SDS011;20658;45.630;8.886;2022-09-06T10:35:04;13.02;;;10.02;;
34405;SDS011;20658;45.630;8.886;2022-09-06T10:37:48;17.10;;;9.75;;
34405;SDS011;20658;45.630;8.886;2022-09-06T10:40:33;16.98;;;8.07;;
34405;SDS011;20658;45.630;8.886;2022-09-06T10:43:16;14.15;;;7.63;;
34405;SDS011;20658;45.630;8.886;2022-09-06T10:45:55;14.13;;;6.20;;
34405;SDS011;20658;45.630;8.886;2022-09-06T10:48:34;19.38;;;8.75;;
34405;SDS011;20658;45.630;8.886;2022-09-06T10:51:10;15.77;;;8.68;;
34405;SDS011;20658;45.630;8.886;2022-09-06T10:53:48;14.10;;;7.78;;
34405;SDS011;20658;45.630;8.886;2022-09-06T10:56:22;11.85;;;6.50;;
34405;SDS011;20658;45.630;8.886;2022-09-06T10:58:58;9.35;;;6.35;;
34405;SDS011;20658;45.630;8.886;2022-09-06T11:01:39;14.88;;;6.88;;
34405;SDS011;20658;45.630;8.886;2022-09-06T11:04:20;9.75;;;6.20;;
34405;SDS011;20658;45.630;8.886;2022-09-06T11:06:59;13.90;;;5.93;;
34405;SDS011;20658;45.630;8.886;2022-09-06T11:09:37;13.98;;;5.65;;
34405;SDS011;20658;45.630;8.886;2022-09-06T11:12:15;12.63;;;6.65;;
34405;SDS011;20658;45.630;8.886;2022-09-06T11:15:00;12.35;;;5.80;;
34405;SDS011;20658;45.630;8.886;2022-09-06T11:17:33;12.13;;;4.75;;
34405;SDS011;20658;45.630;8.886;2022-09-06T11:20:16;10.33;;;5.93;;
34405;SDS011;20658;45.630;8.886;2022-09-06T11:23:02;13.88;;;4.97;;
34405;SDS011;20658;45.630;8.886;2022-09-06T11:26:06;6.70;;;3.78;;
34405;SDS011;20658;45.630;8.886;2022-09-06T11:29:00;9.93;;;4.93;;
34405;SDS011;20658;45.630;8.886;2022-09-06T11:31:47;7.53;;;4.65;;
34405;SDS011;20658;45.630;8.886;2022-09-06T11:34:21;6.90;;;3.63;;
34405;SDS011;20658;45.630;8.886;2022-09-06T11:36:58;16.55;;;7.32;;
34405;SDS011;20658;45.630;8.886;2022-09-06T11:39:33;9.52;;;5.30;;
34405;SDS011;20658;45.630;8.886;2022-09-06T11:42:12;11.88;;;5.95;;
34405;SDS011;20658;45.630;8.886;2022-09-06T11:45:50;10.60;;;4.80;;
34405;SDS011;20658;45.630;8.886;2022-09-06T11:48:29;9.43;;;5.05;;
34405;SDS011;20658;45.630;8.886;2022-09-06T11:51:29;15.63;;;5.57;;
34405;SDS011;20658;45.630;8.886;2022-09-06T11:54:11;11.90;;;4.68;;
34405;SDS011;20658;45.630;8.886;2022-09-06T11:56:54;9.82;;;4.50;;
34405;SDS011;20658;45.630;8.886;2022-09-06T11:59:37;10.45;;;3.75;;
34405;SDS011;20658;45.630;8.886;2022-09-06T12:02:29;6.00;;;2.88;;
34405;SDS011;20658;45.630;8.886;2022-09-06T12:05:11;5.90;;;3.10;;
34405;SDS011;20658;45.630;8.886;2022-09-06T12:10:56;13.32;;;3.70;;
34405;SDS011;20658;45.630;8.886;2022-09-06T12:13:40;8.57;;;3.50;;
34405;SDS011;20658;45.630;8.886;2022-09-06T12:20:02;9.73;;;3.90;;
34405;SDS011;20658;45.630;8.886;2022-09-06T12:22:50;13.32;;;4.13;;
34405;SDS011;20658;45.630;8.886;2022-09-06T12:28:33;8.20;;;3.92;;
34405;SDS011;20658;45.630;8.886;2022-09-06T12:31:30;11.35;;;7.82;;
34405;SDS011;20658;45.630;8.886;2022-09-06T12:34:06;11.55;;;5.13;;
34405;SDS011;20658;45.630;8.886;2022-09-06T12:36:48;12.15;;;5.55;;
34405;SDS011;20658;45.630;8.886;2022-09-06T12:39:29;10.70;;;4.03;;
34405;SDS011;20658;45.630;8.886;2022-09-06T12:41:59;11.23;;;5.35;;
34405;SDS011;20658;45.630;8.886;2022-09-06T12:44:31;9.57;;;5.68;;
34405;SDS011;20658;45.630;8.886;2022-09-06T12:47:02;11.05;;;5.00;;
34405;SDS011;20658;45.630;8.886;2022-09-06T12:49:38;9.77;;;5.63;;
34405;SDS011;20658;45.630;8.886;2022-09-06T12:52:12;14.02;;;5.22;;
34405;SDS011;20658;45.630;8.886;2022-09-06T12:54:44;11.55;;;5.68;;
34405;SDS011;20658;45.630;8.886;2022-09-06T12:57:20;12.10;;;4.50;;
34405;SDS011;20658;45.630;8.886;2022-09-06T12:59:56;9.45;;;5.95;;
34405;SDS011;20658;45.630;8.886;2022-09-06T13:02:31;8.10;;;4.53;;
34405;SDS011;20658;45.630;8.886;2022-09-06T13:05:12;8.32;;;4.07;;
34405;SDS011;20658;45.630;8.886;2022-09-06T13:07:47;9.77;;;4.55;;
34405;SDS011;20658;45.630;8.886;2022-09-06T13:10:25;13.70;;;5.70;;
34405;SDS011;20658;45.630;8.886;2022-09-06T13:13:00;11.43;;;5.18;;
34405;SDS011;20658;45.630;8.886;2022-09-06T13:15:35;14.77;;;6.47;;
34405;SDS011;20658;45.630;8.886;2022-09-06T13:18:19;13.73;;;5.03;;
34405;SDS011;20658;45.630;8.886;2022-09-06T13:20:59;11.40;;;4.97;;
34405;SDS011;20658;45.630;8.886;2022-09-06T13:23:38;13.02;;;4.93;;
34405;SDS011;20658;45.630;8.886;2022-09-06T13:26:14;11.80;;;4.43;;
34405;SDS011;20658;45.630;8.886;2022-09-06T13:29:07;15.20;;;4.80;;
34405;SDS011;20658;45.630;8.886;2022-09-06T13:31:43;12.13;;;4.53;;
34405;SDS011;20658;45.630;8.886;2022-09-06T13:34:19;13.65;;;5.00;;
34405;SDS011;20658;45.630;8.886;2022-09-06T13:36:59;9.68;;;4.25;;
34405;SDS011;20658;45.630;8.886;2022-09-06T13:39:36;12.77;;;4.80;;
34405;SDS011;20658;45.630;8.886;2022-09-06T13:42:23;11.48;;;5.32;;
34405;SDS011;20658;45.630;8.886;2022-09-06T13:45:14;12.90;;;3.92;;
34405;SDS011;20658;45.630;8.886;2022-09-06T13:47:53;9.48;;;4.47;;
34405;SDS011;20658;45.630;8.886;2022-09-06T13:50:23;14.70;;;4.85;;
34405;SDS011;20658;45.630;8.886;2022-09-06T13:52:59;9.10;;;4.00;;
34405;SDS011;20658;45.630;8.886;2022-09-06T13:55:29;17.02;;;4.70;;
34405;SDS011;20658;45.630;8.886;2022-09-06T13:58:04;10.35;;;4.18;;
34405;SDS011;20658;45.630;8.886;2022-09-06T14:00:37;14.60;;;4.90;;
34405;SDS011;20658;45.630;8.886;2022-09-06T14:03:12;10.05;;;4.45;;
34405;SDS011;20658;45.630;8.886;2022-09-06T14:05:53;10.27;;;4.53;;
34405;SDS011;20658;45.630;8.886;2022-09-06T14:08:28;13.43;;;4.97;;
34405;SDS011;20658;45.630;8.886;2022-09-06T14:11:02;10.25;;;4.75;;
34405;SDS011;20658;45.630;8.886;2022-09-06T14:13:30;8.02;;;3.78;;
34405;SDS011;20658;45.630;8.886;2022-09-06T14:16:05;10.32;;;4.60;;
34405;SDS011;20658;45.630;8.886;2022-09-06T14:18:39;13.70;;;3.92;;
34405;SDS011;20658;45.630;8.886;2022-09-06T14:21:13;10.98;;;4.50;;
34405;SDS011;20658;45.630;8.886;2022-09-06T14:23:46;14.98;;;4.90;;
34405;SDS011;20658;45.630;8.886;2022-09-06T14:26:22;11.98;;;3.95;;
34405;SDS011;20658;45.630;8.886;2022-09-06T14:28:51;14.20;;;4.15;;
34405;SDS011;20658;45.630;8.886;2022-09-06T14:31:25;14.52;;;3.63;;
34405;SDS011;20658;45.630;8.886;2022-09-06T14:33:54;13.30;;;4.18;;
34405;SDS011;20658;45.630;8.886;2022-09-06T14:36:29;12.07;;;3.90;;
34405;SDS011;20658;45.630;8.886;2022-09-06T14:39:01;11.13;;;4.25;;
34405;SDS011;20658;45.630;8.886;2022-09-06T14:44:04;12.80;;;4.28;;
34405;SDS011;20658;45.630;8.886;2022-09-06T14:46:33;11.43;;;3.90;;
34405;SDS011;20658;45.630;8.886;2022-09-06T14:49:03;10.93;;;4.32;;
34405;SDS011;20658;45.630;8.886;2022-09-06T14:51:35;15.05;;;4.50;;
34405;SDS011;20658;45.630;8.886;2022-09-06T14:54:07;12.20;;;4.05;;
34405;SDS011;20658;45.630;8.886;2022-09-06T14:56:42;7.45;;;3.70;;
34405;SDS011;20658;45.630;8.886;2022-09-06T14:59:11;11.40;;;3.75;;
34405;SDS011;20658;45.630;8.886;2022-09-06T15:01:45;10.65;;;3.80;;
34405;SDS011;20658;45.630;8.886;2022-09-06T15:04:14;9.13;;;3.92;;
34405;SDS011;20658;45.630;8.886;2022-09-06T15:06:43;9.48;;;3.47;;
34405;SDS011;20658;45.630;8.886;2022-09-06T15:09:19;8.55;;;3.35;;
34405;SDS011;20658;45.630;8.886;2022-09-06T15:11:48;9.27;;;3.00;;
34405;SDS011;20658;45.630;8.886;2022-09-06T15:14:18;9.85;;;3.05;;
34405;SDS011;20658;45.630;8.886;2022-09-06T15:16:54;10.93;;;2.97;;
34405;SDS011;20658;45.630;8.886;2022-09-06T15:19:26;8.82;;;2.92;;
34405;SDS011;20658;45.630;8.886;2022-09-06T15:22:01;7.00;;;3.45;;
34405;SDS011;20658;45.630;8.886;2022-09-06T15:24:32;13.18;;;3.00;;
34405;SDS011;20658;45.630;8.886;2022-09-06T15:27:07;6.93;;;2.90;;
34405;SDS011;20658;45.630;8.886;2022-09-06T15:29:40;11.05;;;2.80;;
34405;SDS011;20658;45.630;8.886;2022-09-06T15:32:15;9.02;;;2.70;;
34405;SDS011;20658;45.630;8.886;2022-09-06T15:34:43;11.73;;;2.90;;
34405;SDS011;20658;45.630;8.886;2022-09-06T15:37:17;7.88;;;3.25;;
34405;SDS011;20658;45.630;8.886;2022-09-06T15:39:47;8.27;;;2.58;;
34405;SDS011;20658;45.630;8.886;2022-09-06T15:42:15;9.98;;;2.67;;
34405;SDS011;20658;45.630;8.886;2022-09-06T15:44:44;11.10;;;3.15;;
34405;SDS011;20658;45.630;8.886;2022-09-06T15:47:13;9.48;;;2.83;;
34405;SDS011;20658;45.630;8.886;2022-09-06T15:49:41;7.05;;;2.63;;